sensor_id;sensor_type;location;lat;lon;timestamp;temperature;humidity
21238;DHT22;10777;50.828;3.264;2022-11-15T00:00:04;12.40;99.90
21238;DHT22;10777;50.828;3.264;2022-11-15T00:02:30;12.40;99.90
21238;DHT22;10777;50.828;3.264;2022-11-15T00:04:55;12.40;99.90
21238;DHT22;10777;50.828;3.264;2022-11-15T00:07:21;12.50;99.90
21238;DHT22;10777;50.828;3.264;2022-11-15T00:09:46;12.40;99.90
21238;DHT22;10777;50.828;3.264;2022-11-15T00:12:13;12.40;99.90
21238;DHT22;10777;50.828;3.264;2022-11-15T00:14:38;12.40;99.90
21238;DHT22;10777;50.828;3.264;2022-11-15T00:17:07;12.30;99.90
21238;DHT22;10777;50.828;3.264;2022-11-15T00:19:34;12.10;99.90
21238;DHT22;10777;50.828;3.264;2022-11-15T00:22:00;12.30;99.90
21238;DHT22;10777;50.828;3.264;2022-11-15T00:24:25;12.40;99.90
21238;DHT22;10777;50.828;3.264;2022-11-15T00:26:51;12.70;99.90
21238;DHT22;10777;50.828;3.264;2022-11-15T00:29:17;12.70;99.90
21238;DHT22;10777;50.828;3.264;2022-11-15T00:31:42;12.60;99.90
21238;DHT22;10777;50.828;3.264;2022-11-15T00:34:09;12.70;99.90
21238;DHT22;10777;50.828;3.264;2022-11-15T00:36:35;12.50;99.90
21238;DHT22;10777;50.828;3.264;2022-11-15T00:39:04;12.30;99.90
21238;DHT22;10777;50.828;3.264;2022-11-15T00:41:30;12.20;99.90
21238;DHT22;10777;50.828;3.264;2022-11-15T00:43:55;12.40;99.90
21238;DHT22;10777;50.828;3.264;2022-11-15T00:46:21;12.60;99.90
21238;DHT22;10777;50.828;3.264;2022-11-15T00:48:47;12.60;99.90
21238;DHT22;10777;50.828;3.264;2022-11-15T00:51:12;12.80;99.90
21238;DHT22;10777;50.828;3.264;2022-11-15T00:53:38;12.80;99.90
21238;DHT22;10777;50.828;3.264;2022-11-15T00:56:03;12.90;99.90
21238;DHT22;10777;50.828;3.264;2022-11-15T00:58:29;12.80;99.90
21238;DHT22;10777;50.828;3.264;2022-11-15T01:00:55;12.70;99.90
21238;DHT22;10777;50.828;3.264;2022-11-15T01:03:20;12.70;99.90
21238;DHT22;10777;50.828;3.264;2022-11-15T01:05:46;12.70;99.90
21238;DHT22;10777;50.828;3.264;2022-11-15T01:08:13;12.70;99.90
21238;DHT22;10777;50.828;3.264;2022-11-15T01:10:39;12.60;99.90
21238;DHT22;10777;50.828;3.264;2022-11-15T01:13:05;12.40;99.90
21238;DHT22;10777;50.828;3.264;2022-11-15T01:15:30;12.40;99.90
21238;DHT22;10777;50.828;3.264;2022-11-15T01:17:56;12.40;99.90
21238;DHT22;10777;50.828;3.264;2022-11-15T01:20:21;12.50;99.90
21238;DHT22;10777;50.828;3.264;2022-11-15T01:22:47;12.40;99.90
21238;DHT22;10777;50.828;3.264;2022-11-15T01:25:13;12.40;99.90
21238;DHT22;10777;50.828;3.264;2022-11-15T01:27:38;12.40;99.90
21238;DHT22;10777;50.828;3.264;2022-11-15T01:30:04;12.40;99.90
21238;DHT22;10777;50.828;3.264;2022-11-15T01:32:30;12.40;99.90
21238;DHT22;10777;50.828;3.264;2022-11-15T01:34:55;12.60;99.90
21238;DHT22;10777;50.828;3.264;2022-11-15T01:37:21;12.60;99.90
21238;DHT22;10777;50.828;3.264;2022-11-15T01:39:47;12.60;99.90
21238;DHT22;10777;50.828;3.264;2022-11-15T01:42:13;12.50;99.90
21238;DHT22;10777;50.828;3.264;2022-11-15T01:44:54;12.40;99.90
21238;DHT22;10777;50.828;3.264;2022-11-15T01:47:24;12.60;99.90
21238;DHT22;10777;50.828;3.264;2022-11-15T01:50:10;12.50;99.90
21238;DHT22;10777;50.828;3.264;2022-11-15T01:52:38;12.40;99.90
21238;DHT22;10777;50.828;3.264;2022-11-15T01:55:11;12.60;99.90
21238;DHT22;10777;50.828;3.264;2022-11-15T01:57:42;12.30;99.90
21238;DHT22;10777;50.828;3.264;2022-11-15T02:00:09;12.30;99.90
21238;DHT22;10777;50.828;3.264;2022-11-15T02:02:36;12.10;99.90
21238;DHT22;10777;50.828;3.264;2022-11-15T02:05:02;12.40;99.90
21238;DHT22;10777;50.828;3.264;2022-11-15T02:07:28;12.20;99.90
21238;DHT22;10777;50.828;3.264;2022-11-15T02:09:55;12.20;99.90
21238;DHT22;10777;50.828;3.264;2022-11-15T02:12:23;12.20;99.90
21238;DHT22;10777;50.828;3.264;2022-11-15T02:14:52;12.30;99.90
21238;DHT22;10777;50.828;3.264;2022-11-15T02:20:36;12.20;99.90
21238;DHT22;10777;50.828;3.264;2022-11-15T02:29:34;12.40;99.90
21238;DHT22;10777;50.828;3.264;2022-11-15T02:35:10;12.00;99.90
21238;DHT22;10777;50.828;3.264;2022-11-15T02:37:59;12.10;99.90
21238;DHT22;10777;50.828;3.264;2022-11-15T02:40:46;12.10;99.90
21238;DHT22;10777;50.828;3.264;2022-11-15T02:43:22;12.10;99.90
21238;DHT22;10777;50.828;3.264;2022-11-15T02:46:18;11.90;99.90
21238;DHT22;10777;50.828;3.264;2022-11-15T02:48:45;11.70;99.90
21238;DHT22;10777;50.828;3.264;2022-11-15T02:51:12;11.80;99.90
21238;DHT22;10777;50.828;3.264;2022-11-15T02:53:38;11.80;99.90
21238;DHT22;10777;50.828;3.264;2022-11-15T02:56:04;11.90;99.90
21238;DHT22;10777;50.828;3.264;2022-11-15T02:58:57;11.40;99.90
21238;DHT22;10777;50.828;3.264;2022-11-15T03:02:04;11.70;99.90
21238;DHT22;10777;50.828;3.264;2022-11-15T03:04:52;11.70;99.90
21238;DHT22;10777;50.828;3.264;2022-11-15T03:07:26;11.70;99.90
21238;DHT22;10777;50.828;3.264;2022-11-15T03:10:01;11.70;99.90
21238;DHT22;10777;50.828;3.264;2022-11-15T03:12:51;11.70;99.90
21238;DHT22;10777;50.828;3.264;2022-11-15T03:15:26;11.90;99.90
21238;DHT22;10777;50.828;3.264;2022-11-15T03:18:05;11.80;99.90
21238;DHT22;10777;50.828;3.264;2022-11-15T03:20:34;11.50;99.90
21238;DHT22;10777;50.828;3.264;2022-11-15T03:23:05;11.70;99.90
21238;DHT22;10777;50.828;3.264;2022-11-15T03:25:34;11.80;99.90
21238;DHT22;10777;50.828;3.264;2022-11-15T03:28:03;11.80;99.90
21238;DHT22;10777;50.828;3.264;2022-11-15T03:30:32;11.70;99.90
21238;DHT22;10777;50.828;3.264;2022-11-15T03:33:00;11.50;99.90
21238;DHT22;10777;50.828;3.264;2022-11-15T03:35:30;11.30;99.90
21238;DHT22;10777;50.828;3.264;2022-11-15T03:38:08;11.30;99.90
21238;DHT22;10777;50.828;3.264;2022-11-15T03:40:41;11.20;99.90
21238;DHT22;10777;50.828;3.264;2022-11-15T03:46:04;11.40;99.90
21238;DHT22;10777;50.828;3.264;2022-11-15T03:48:35;11.30;99.90
21238;DHT22;10777;50.828;3.264;2022-11-15T03:51:04;11.20;99.90
21238;DHT22;10777;50.828;3.264;2022-11-15T03:53:30;11.30;99.90
21238;DHT22;10777;50.828;3.264;2022-11-15T03:55:57;11.30;99.90
21238;DHT22;10777;50.828;3.264;2022-11-15T03:58:23;11.20;99.90
21238;DHT22;10777;50.828;3.264;2022-11-15T04:00:48;11.20;99.90
21238;DHT22;10777;50.828;3.264;2022-11-15T04:03:14;11.30;99.90
21238;DHT22;10777;50.828;3.264;2022-11-15T04:05:40;11.30;99.90
21238;DHT22;10777;50.828;3.264;2022-11-15T04:08:05;11.40;99.90
21238;DHT22;10777;50.828;3.264;2022-11-15T04:10:31;11.40;99.90
21238;DHT22;10777;50.828;3.264;2022-11-15T04:12:57;11.40;99.90
21238;DHT22;10777;50.828;3.264;2022-11-15T04:15:23;11.30;99.90
21238;DHT22;10777;50.828;3.264;2022-11-15T04:17:51;11.10;99.90
21238;DHT22;10777;50.828;3.264;2022-11-15T04:20:21;11.00;99.90
21238;DHT22;10777;50.828;3.264;2022-11-15T04:23:13;11.00;99.90
21238;DHT22;10777;50.828;3.264;2022-11-15T04:26:02;11.00;99.90
21238;DHT22;10777;50.828;3.264;2022-11-15T04:28:28;10.90;99.90
21238;DHT22;10777;50.828;3.264;2022-11-15T04:30:54;10.90;99.90
21238;DHT22;10777;50.828;3.264;2022-11-15T04:33:20;10.90;99.90
21238;DHT22;10777;50.828;3.264;2022-11-15T04:35:47;10.90;99.90
21238;DHT22;10777;50.828;3.264;2022-11-15T04:38:34;11.00;99.90
21238;DHT22;10777;50.828;3.264;2022-11-15T04:41:00;11.00;99.90
21238;DHT22;10777;50.828;3.264;2022-11-15T04:43:26;11.00;99.90
21238;DHT22;10777;50.828;3.264;2022-11-15T04:45:51;10.90;99.90
21238;DHT22;10777;50.828;3.264;2022-11-15T04:48:20;11.00;99.90
21238;DHT22;10777;50.828;3.264;2022-11-15T04:50:48;11.00;99.90
21238;DHT22;10777;50.828;3.264;2022-11-15T04:53:13;10.90;99.90
21238;DHT22;10777;50.828;3.264;2022-11-15T04:55:39;10.80;99.90
21238;DHT22;10777;50.828;3.264;2022-11-15T04:58:05;10.80;99.90
21238;DHT22;10777;50.828;3.264;2022-11-15T05:00:30;10.80;99.90
21238;DHT22;10777;50.828;3.264;2022-11-15T05:02:56;10.60;99.90
21238;DHT22;10777;50.828;3.264;2022-11-15T05:05:42;10.40;99.90
21238;DHT22;10777;50.828;3.264;2022-11-15T05:08:08;10.40;99.90
21238;DHT22;10777;50.828;3.264;2022-11-15T05:10:33;10.50;99.90
21238;DHT22;10777;50.828;3.264;2022-11-15T05:12:59;10.60;99.90
21238;DHT22;10777;50.828;3.264;2022-11-15T05:15:24;10.50;99.90
21238;DHT22;10777;50.828;3.264;2022-11-15T05:17:50;10.50;99.90
21238;DHT22;10777;50.828;3.264;2022-11-15T05:20:16;10.50;99.90
21238;DHT22;10777;50.828;3.264;2022-11-15T05:22:42;10.30;99.90
21238;DHT22;10777;50.828;3.264;2022-11-15T05:25:08;10.20;99.90
21238;DHT22;10777;50.828;3.264;2022-11-15T05:27:34;10.20;99.90
21238;DHT22;10777;50.828;3.264;2022-11-15T05:30:00;10.10;99.90
21238;DHT22;10777;50.828;3.264;2022-11-15T05:32:26;10.20;99.90
21238;DHT22;10777;50.828;3.264;2022-11-15T05:34:51;10.20;99.90
21238;DHT22;10777;50.828;3.264;2022-11-15T05:37:17;10.20;99.90
21238;DHT22;10777;50.828;3.264;2022-11-15T05:39:43;10.30;99.90
21238;DHT22;10777;50.828;3.264;2022-11-15T05:42:11;10.20;99.90
21238;DHT22;10777;50.828;3.264;2022-11-15T05:44:40;10.10;99.90
21238;DHT22;10777;50.828;3.264;2022-11-15T05:47:09;10.10;99.90
21238;DHT22;10777;50.828;3.264;2022-11-15T05:49:37;10.10;99.90
21238;DHT22;10777;50.828;3.264;2022-11-15T05:52:06;10.30;99.90
21238;DHT22;10777;50.828;3.264;2022-11-15T05:54:33;10.30;99.90
21238;DHT22;10777;50.828;3.264;2022-11-15T05:57:00;10.40;99.90
21238;DHT22;10777;50.828;3.264;2022-11-15T05:59:27;10.30;99.90
21238;DHT22;10777;50.828;3.264;2022-11-15T06:01:53;10.30;99.90
21238;DHT22;10777;50.828;3.264;2022-11-15T06:04:19;10.30;99.90
21238;DHT22;10777;50.828;3.264;2022-11-15T06:06:44;10.20;99.90
21238;DHT22;10777;50.828;3.264;2022-11-15T06:09:10;10.30;99.90
21238;DHT22;10777;50.828;3.264;2022-11-15T06:11:36;10.30;99.90
21238;DHT22;10777;50.828;3.264;2022-11-15T06:14:01;10.20;99.90
21238;DHT22;10777;50.828;3.264;2022-11-15T06:16:30;10.30;99.90
21238;DHT22;10777;50.828;3.264;2022-11-15T06:18:55;10.20;99.90
21238;DHT22;10777;50.828;3.264;2022-11-15T06:21:21;10.20;99.90
21238;DHT22;10777;50.828;3.264;2022-11-15T06:23:47;10.00;99.90
21238;DHT22;10777;50.828;3.264;2022-11-15T06:26:13;9.90;99.90
21238;DHT22;10777;50.828;3.264;2022-11-15T06:28:38;10.20;99.90
21238;DHT22;10777;50.828;3.264;2022-11-15T06:31:06;10.30;99.90
21238;DHT22;10777;50.828;3.264;2022-11-15T06:33:32;10.30;99.90
21238;DHT22;10777;50.828;3.264;2022-11-15T06:36:08;10.30;99.90
21238;DHT22;10777;50.828;3.264;2022-11-15T06:38:39;10.40;99.90
21238;DHT22;10777;50.828;3.264;2022-11-15T06:41:08;10.30;99.90
21238;DHT22;10777;50.828;3.264;2022-11-15T06:43:34;10.50;99.90
21238;DHT22;10777;50.828;3.264;2022-11-15T06:46:01;10.70;99.90
21238;DHT22;10777;50.828;3.264;2022-11-15T06:48:28;10.70;99.90
21238;DHT22;10777;50.828;3.264;2022-11-15T06:50:56;10.60;99.90
21238;DHT22;10777;50.828;3.264;2022-11-15T06:53:22;10.60;99.90
21238;DHT22;10777;50.828;3.264;2022-11-15T06:55:48;10.50;99.90
21238;DHT22;10777;50.828;3.264;2022-11-15T06:58:14;10.60;99.90
21238;DHT22;10777;50.828;3.264;2022-11-15T07:00:40;10.70;99.90
21238;DHT22;10777;50.828;3.264;2022-11-15T07:03:05;10.70;99.90
21238;DHT22;10777;50.828;3.264;2022-11-15T07:05:31;10.60;99.90
21238;DHT22;10777;50.828;3.264;2022-11-15T07:07:58;10.70;99.90
21238;DHT22;10777;50.828;3.264;2022-11-15T07:10:25;10.60;99.90
21238;DHT22;10777;50.828;3.264;2022-11-15T07:12:52;10.60;99.90
21238;DHT22;10777;50.828;3.264;2022-11-15T07:15:20;10.80;99.90
21238;DHT22;10777;50.828;3.264;2022-11-15T07:17:45;10.70;99.90
21238;DHT22;10777;50.828;3.264;2022-11-15T07:20:12;10.60;99.90
21238;DHT22;10777;50.828;3.264;2022-11-15T07:22:39;10.60;99.90
21238;DHT22;10777;50.828;3.264;2022-11-15T07:25:05;10.40;99.90
21238;DHT22;10777;50.828;3.264;2022-11-15T07:27:30;10.50;99.90
21238;DHT22;10777;50.828;3.264;2022-11-15T07:29:56;10.50;99.90
21238;DHT22;10777;50.828;3.264;2022-11-15T07:32:22;10.60;99.90
21238;DHT22;10777;50.828;3.264;2022-11-15T07:34:47;10.50;99.90
21238;DHT22;10777;50.828;3.264;2022-11-15T07:37:14;10.60;99.90
21238;DHT22;10777;50.828;3.264;2022-11-15T07:39:39;10.70;99.90
21238;DHT22;10777;50.828;3.264;2022-11-15T07:42:05;10.80;99.90
21238;DHT22;10777;50.828;3.264;2022-11-15T07:44:51;10.80;99.90
21238;DHT22;10777;50.828;3.264;2022-11-15T07:47:16;10.80;99.90
21238;DHT22;10777;50.828;3.264;2022-11-15T07:49:42;10.80;99.90
21238;DHT22;10777;50.828;3.264;2022-11-15T07:52:07;10.90;99.90
21238;DHT22;10777;50.828;3.264;2022-11-15T07:54:33;10.90;99.90
21238;DHT22;10777;50.828;3.264;2022-11-15T07:56:59;10.90;99.90
21238;DHT22;10777;50.828;3.264;2022-11-15T07:59:24;11.00;99.90
21238;DHT22;10777;50.828;3.264;2022-11-15T08:01:50;10.90;99.90
21238;DHT22;10777;50.828;3.264;2022-11-15T08:04:16;11.10;99.90
21238;DHT22;10777;50.828;3.264;2022-11-15T08:06:42;11.00;99.90
21238;DHT22;10777;50.828;3.264;2022-11-15T08:09:07;10.80;99.90
21238;DHT22;10777;50.828;3.264;2022-11-15T08:11:33;10.80;99.90
21238;DHT22;10777;50.828;3.264;2022-11-15T08:13:59;10.80;99.90
21238;DHT22;10777;50.828;3.264;2022-11-15T08:16:24;10.90;99.90
21238;DHT22;10777;50.828;3.264;2022-11-15T08:18:50;11.00;99.90
21238;DHT22;10777;50.828;3.264;2022-11-15T08:21:19;10.90;99.90
21238;DHT22;10777;50.828;3.264;2022-11-15T08:23:45;11.00;99.90
21238;DHT22;10777;50.828;3.264;2022-11-15T08:26:11;11.00;99.90
21238;DHT22;10777;50.828;3.264;2022-11-15T08:28:37;11.40;99.90
21238;DHT22;10777;50.828;3.264;2022-11-15T08:31:03;11.40;99.90
21238;DHT22;10777;50.828;3.264;2022-11-15T08:33:30;11.40;99.90
21238;DHT22;10777;50.828;3.264;2022-11-15T08:35:57;11.50;99.90
21238;DHT22;10777;50.828;3.264;2022-11-15T08:38:24;11.40;99.90
21238;DHT22;10777;50.828;3.264;2022-11-15T08:40:52;11.50;99.90
21238;DHT22;10777;50.828;3.264;2022-11-15T08:43:19;11.60;99.90
21238;DHT22;10777;50.828;3.264;2022-11-15T08:45:44;11.60;99.90
21238;DHT22;10777;50.828;3.264;2022-11-15T08:48:10;11.70;99.90
21238;DHT22;10777;50.828;3.264;2022-11-15T08:50:36;11.50;99.90
21238;DHT22;10777;50.828;3.264;2022-11-15T08:53:10;11.40;99.90
21238;DHT22;10777;50.828;3.264;2022-11-15T08:55:38;11.50;99.90
21238;DHT22;10777;50.828;3.264;2022-11-15T08:58:04;11.60;99.90
21238;DHT22;10777;50.828;3.264;2022-11-15T09:00:30;11.60;99.90
21238;DHT22;10777;50.828;3.264;2022-11-15T09:02:55;11.50;99.90
21238;DHT22;10777;50.828;3.264;2022-11-15T09:05:21;11.70;99.90
21238;DHT22;10777;50.828;3.264;2022-11-15T09:07:47;11.70;99.90
21238;DHT22;10777;50.828;3.264;2022-11-15T09:10:12;11.60;99.90
21238;DHT22;10777;50.828;3.264;2022-11-15T09:12:38;11.70;99.90
21238;DHT22;10777;50.828;3.264;2022-11-15T09:15:06;11.80;99.90
21238;DHT22;10777;50.828;3.264;2022-11-15T09:17:34;11.90;99.90
21238;DHT22;10777;50.828;3.264;2022-11-15T09:19:59;12.00;99.90
21238;DHT22;10777;50.828;3.264;2022-11-15T09:22:25;12.20;99.90
21238;DHT22;10777;50.828;3.264;2022-11-15T09:24:50;12.20;99.90
21238;DHT22;10777;50.828;3.264;2022-11-15T09:27:16;12.30;99.90
21238;DHT22;10777;50.828;3.264;2022-11-15T09:29:43;12.20;99.90
21238;DHT22;10777;50.828;3.264;2022-11-15T09:32:09;12.10;99.90
21238;DHT22;10777;50.828;3.264;2022-11-15T09:34:35;12.10;99.90
21238;DHT22;10777;50.828;3.264;2022-11-15T09:37:01;12.20;99.90
21238;DHT22;10777;50.828;3.264;2022-11-15T09:39:26;12.10;99.90
21238;DHT22;10777;50.828;3.264;2022-11-15T09:42:04;12.30;99.90
21238;DHT22;10777;50.828;3.264;2022-11-15T09:45:06;12.40;99.90
21238;DHT22;10777;50.828;3.264;2022-11-15T09:48:35;12.40;99.90
21238;DHT22;10777;50.828;3.264;2022-11-15T09:50:45;12.50;99.90
21238;DHT22;10777;50.828;3.264;2022-11-15T09:53:15;12.60;99.90
21238;DHT22;10777;50.828;3.264;2022-11-15T09:55:59;11.30;99.90
21238;DHT22;10777;50.828;3.264;2022-11-15T09:58:36;12.80;99.90
21238;DHT22;10777;50.828;3.264;2022-11-15T10:01:08;12.60;99.90
21238;DHT22;10777;50.828;3.264;2022-11-15T10:03:38;12.50;99.90
21238;DHT22;10777;50.828;3.264;2022-11-15T10:06:14;12.50;99.90
21238;DHT22;10777;50.828;3.264;2022-11-15T10:09:03;12.50;99.90
21238;DHT22;10777;50.828;3.264;2022-11-15T10:11:32;12.40;99.90
21238;DHT22;10777;50.828;3.264;2022-11-15T10:14:10;12.40;99.90
21238;DHT22;10777;50.828;3.264;2022-11-15T10:17:13;12.50;99.90
21238;DHT22;10777;50.828;3.264;2022-11-15T10:19:50;12.60;99.90
21238;DHT22;10777;50.828;3.264;2022-11-15T10:22:41;12.50;99.90
21238;DHT22;10777;50.828;3.264;2022-11-15T10:25:17;12.80;99.90
21238;DHT22;10777;50.828;3.264;2022-11-15T10:27:45;12.80;99.90
21238;DHT22;10777;50.828;3.264;2022-11-15T10:30:17;13.00;99.90
21238;DHT22;10777;50.828;3.264;2022-11-15T10:32:45;13.20;99.90
21238;DHT22;10777;50.828;3.264;2022-11-15T10:35:23;13.20;99.90
21238;DHT22;10777;50.828;3.264;2022-11-15T10:37:49;13.20;99.90
21238;DHT22;10777;50.828;3.264;2022-11-15T10:40:21;13.10;99.90
21238;DHT22;10777;50.828;3.264;2022-11-15T10:42:49;13.20;99.90
21238;DHT22;10777;50.828;3.264;2022-11-15T10:45:32;13.20;99.90
21238;DHT22;10777;50.828;3.264;2022-11-15T10:48:20;13.40;99.90
21238;DHT22;10777;50.828;3.264;2022-11-15T10:50:48;13.40;99.90
21238;DHT22;10777;50.828;3.264;2022-11-15T10:53:35;13.60;99.90
21238;DHT22;10777;50.828;3.264;2022-11-15T10:56:07;13.40;99.90
21238;DHT22;10777;50.828;3.264;2022-11-15T10:58:39;13.30;99.90
21238;DHT22;10777;50.828;3.264;2022-11-15T11:01:12;13.20;99.90
21238;DHT22;10777;50.828;3.264;2022-11-15T11:03:39;13.30;99.90
21238;DHT22;10777;50.828;3.264;2022-11-15T11:06:21;13.50;99.90
21238;DHT22;10777;50.828;3.264;2022-11-15T11:08:57;13.40;99.90
21238;DHT22;10777;50.828;3.264;2022-11-15T11:11:24;13.40;99.90
21238;DHT22;10777;50.828;3.264;2022-11-15T11:13:50;13.50;99.90
21238;DHT22;10777;50.828;3.264;2022-11-15T11:16:27;13.50;99.90
21238;DHT22;10777;50.828;3.264;2022-11-15T11:22:20;13.70;99.90
21238;DHT22;10777;50.828;3.264;2022-11-15T11:31:07;13.70;99.90
21238;DHT22;10777;50.828;3.264;2022-11-15T11:34:00;13.70;99.90
21238;DHT22;10777;50.828;3.264;2022-11-15T11:36:45;13.50;99.90
21238;DHT22;10777;50.828;3.264;2022-11-15T11:39:24;13.60;99.90
21238;DHT22;10777;50.828;3.264;2022-11-15T11:47:43;13.50;99.90
21238;DHT22;10777;50.828;3.264;2022-11-15T11:50:15;13.50;99.90
21238;DHT22;10777;50.828;3.264;2022-11-15T11:52:57;13.40;99.90
21238;DHT22;10777;50.828;3.264;2022-11-15T11:55:29;13.40;99.90
21238;DHT22;10777;50.828;3.264;2022-11-15T11:58:19;13.50;99.90
21238;DHT22;10777;50.828;3.264;2022-11-15T12:00:52;13.50;99.90
21238;DHT22;10777;50.828;3.264;2022-11-15T12:03:48;13.70;99.90
21238;DHT22;10777;50.828;3.264;2022-11-15T12:06:37;13.60;99.90
21238;DHT22;10777;50.828;3.264;2022-11-15T12:09:34;13.50;99.90
21238;DHT22;10777;50.828;3.264;2022-11-15T12:14:55;13.50;99.90
21238;DHT22;10777;50.828;3.264;2022-11-15T12:17:24;13.30;99.90
21238;DHT22;10777;50.828;3.264;2022-11-15T12:19:55;13.40;99.90
21238;DHT22;10777;50.828;3.264;2022-11-15T12:22:38;13.50;99.90
21238;DHT22;10777;50.828;3.264;2022-11-15T12:25:18;13.50;99.90
21238;DHT22;10777;50.828;3.264;2022-11-15T12:27:53;13.50;99.90
21238;DHT22;10777;50.828;3.264;2022-11-15T12:30:21;13.40;99.90
21238;DHT22;10777;50.828;3.264;2022-11-15T12:32:57;13.30;99.90
21238;DHT22;10777;50.828;3.264;2022-11-15T12:35:29;13.40;99.90
21238;DHT22;10777;50.828;3.264;2022-11-15T12:37:56;13.60;99.90
21238;DHT22;10777;50.828;3.264;2022-11-15T12:40:25;13.50;99.90
21238;DHT22;10777;50.828;3.264;2022-11-15T12:43:03;13.80;99.90
21238;DHT22;10777;50.828;3.264;2022-11-15T12:45:35;13.80;99.90
21238;DHT22;10777;50.828;3.264;2022-11-15T12:51:07;13.70;99.90
21238;DHT22;10777;50.828;3.264;2022-11-15T12:53:34;13.60;99.90
21238;DHT22;10777;50.828;3.264;2022-11-15T12:56:20;13.50;99.90
21238;DHT22;10777;50.828;3.264;2022-11-15T12:58:53;13.50;99.90
21238;DHT22;10777;50.828;3.264;2022-11-15T13:04:24;13.40;99.90
21238;DHT22;10777;50.828;3.264;2022-11-15T13:06:59;13.30;99.90
21238;DHT22;10777;50.828;3.264;2022-11-15T13:12:55;13.40;99.90
21238;DHT22;10777;50.828;3.264;2022-11-15T13:15:57;13.50;99.90
21238;DHT22;10777;50.828;3.264;2022-11-15T13:18:32;13.60;99.90
21238;DHT22;10777;50.828;3.264;2022-11-15T13:20:59;13.60;99.90
21238;DHT22;10777;50.828;3.264;2022-11-15T13:23:25;13.70;99.90
21238;DHT22;10777;50.828;3.264;2022-11-15T13:26:08;13.50;99.90
21238;DHT22;10777;50.828;3.264;2022-11-15T13:28:46;13.50;99.90
21238;DHT22;10777;50.828;3.264;2022-11-15T13:31:29;13.50;99.90
21238;DHT22;10777;50.828;3.264;2022-11-15T13:33:59;13.40;99.90
21238;DHT22;10777;50.828;3.264;2022-11-15T13:36:28;13.30;99.90
21238;DHT22;10777;50.828;3.264;2022-11-15T13:39:30;13.20;99.90
21238;DHT22;10777;50.828;3.264;2022-11-15T13:41:57;13.10;99.90
21238;DHT22;10777;50.828;3.264;2022-11-15T13:44:28;13.10;99.90
21238;DHT22;10777;50.828;3.264;2022-11-15T13:47:13;13.20;99.90
21238;DHT22;10777;50.828;3.264;2022-11-15T13:49:39;13.10;99.90
21238;DHT22;10777;50.828;3.264;2022-11-15T13:52:07;13.10;99.90
21238;DHT22;10777;50.828;3.264;2022-11-15T13:54:38;13.10;99.90
21238;DHT22;10777;50.828;3.264;2022-11-15T13:57:18;13.10;99.90
21238;DHT22;10777;50.828;3.264;2022-11-15T13:59:47;13.00;99.90
21238;DHT22;10777;50.828;3.264;2022-11-15T14:02:17;13.00;99.90
21238;DHT22;10777;50.828;3.264;2022-11-15T14:04:49;12.80;99.90
21238;DHT22;10777;50.828;3.264;2022-11-15T14:07:18;11.70;99.90
21238;DHT22;10777;50.828;3.264;2022-11-15T14:09:44;12.90;99.90
21238;DHT22;10777;50.828;3.264;2022-11-15T14:12:32;12.90;99.90
21238;DHT22;10777;50.828;3.264;2022-11-15T14:15:00;12.80;99.90
21238;DHT22;10777;50.828;3.264;2022-11-15T14:17:36;12.60;99.90
21238;DHT22;10777;50.828;3.264;2022-11-15T14:20:20;12.60;99.90
21238;DHT22;10777;50.828;3.264;2022-11-15T14:22:53;12.80;99.90
21238;DHT22;10777;50.828;3.264;2022-11-15T14:25:25;12.90;99.90
21238;DHT22;10777;50.828;3.264;2022-11-15T14:28:16;12.80;99.90
21238;DHT22;10777;50.828;3.264;2022-11-15T14:30:44;12.70;99.90
21238;DHT22;10777;50.828;3.264;2022-11-15T14:33:34;12.80;99.90
21238;DHT22;10777;50.828;3.264;2022-11-15T14:36:05;12.70;99.90
21238;DHT22;10777;50.828;3.264;2022-11-15T14:38:31;12.80;99.90
21238;DHT22;10777;50.828;3.264;2022-11-15T14:40:57;12.90;99.90
21238;DHT22;10777;50.828;3.264;2022-11-15T14:43:23;12.80;99.90
21238;DHT22;10777;50.828;3.264;2022-11-15T14:45:49;12.80;99.90
21238;DHT22;10777;50.828;3.264;2022-11-15T14:48:15;12.80;99.90
21238;DHT22;10777;50.828;3.264;2022-11-15T14:50:40;13.00;99.90
21238;DHT22;10777;50.828;3.264;2022-11-15T14:53:06;13.00;99.90
21238;DHT22;10777;50.828;3.264;2022-11-15T14:55:34;13.10;99.90
21238;DHT22;10777;50.828;3.264;2022-11-15T14:58:02;13.10;99.90
21238;DHT22;10777;50.828;3.264;2022-11-15T15:00:31;12.90;99.90
21238;DHT22;10777;50.828;3.264;2022-11-15T15:02:57;12.70;99.90
21238;DHT22;10777;50.828;3.264;2022-11-15T15:05:27;12.70;99.90
21238;DHT22;10777;50.828;3.264;2022-11-15T15:07:55;12.70;99.90
21238;DHT22;10777;50.828;3.264;2022-11-15T15:10:21;12.60;99.90
21238;DHT22;10777;50.828;3.264;2022-11-15T15:12:47;12.70;99.90
21238;DHT22;10777;50.828;3.264;2022-11-15T15:15:15;12.70;99.90
21238;DHT22;10777;50.828;3.264;2022-11-15T15:17:41;12.80;99.90
21238;DHT22;10777;50.828;3.264;2022-11-15T15:20:09;12.60;99.90
21238;DHT22;10777;50.828;3.264;2022-11-15T15:22:37;12.60;99.90
21238;DHT22;10777;50.828;3.264;2022-11-15T15:25:07;12.80;99.90
21238;DHT22;10777;50.828;3.264;2022-11-15T15:27:38;12.90;99.90
21238;DHT22;10777;50.828;3.264;2022-11-15T15:30:04;13.10;99.90
21238;DHT22;10777;50.828;3.264;2022-11-15T15:32:29;13.10;99.90
21238;DHT22;10777;50.828;3.264;2022-11-15T15:34:55;13.00;99.90
21238;DHT22;10777;50.828;3.264;2022-11-15T15:37:23;13.10;99.90
21238;DHT22;10777;50.828;3.264;2022-11-15T15:39:54;13.00;99.90
21238;DHT22;10777;50.828;3.264;2022-11-15T15:42:21;13.20;99.90
21238;DHT22;10777;50.828;3.264;2022-11-15T15:44:48;13.20;99.90
21238;DHT22;10777;50.828;3.264;2022-11-15T15:47:22;13.20;99.90
21238;DHT22;10777;50.828;3.264;2022-11-15T15:49:49;12.90;99.90
21238;DHT22;10777;50.828;3.264;2022-11-15T15:52:16;13.10;99.90
21238;DHT22;10777;50.828;3.264;2022-11-15T15:54:42;13.00;99.90
21238;DHT22;10777;50.828;3.264;2022-11-15T15:57:08;13.00;99.90
21238;DHT22;10777;50.828;3.264;2022-11-15T15:59:36;13.00;99.90
21238;DHT22;10777;50.828;3.264;2022-11-15T16:02:04;13.00;99.90
21238;DHT22;10777;50.828;3.264;2022-11-15T16:04:30;13.10;99.90
21238;DHT22;10777;50.828;3.264;2022-11-15T16:07:00;13.00;99.90
21238;DHT22;10777;50.828;3.264;2022-11-15T16:09:38;12.90;99.90
21238;DHT22;10777;50.828;3.264;2022-11-15T16:12:23;13.00;99.90
21238;DHT22;10777;50.828;3.264;2022-11-15T16:14:49;12.90;99.90
21238;DHT22;10777;50.828;3.264;2022-11-15T16:17:18;12.80;99.90
21238;DHT22;10777;50.828;3.264;2022-11-15T16:19:45;12.90;99.90
21238;DHT22;10777;50.828;3.264;2022-11-15T16:22:31;12.90;99.90
21238;DHT22;10777;50.828;3.264;2022-11-15T16:24:57;12.80;99.90
21238;DHT22;10777;50.828;3.264;2022-11-15T16:27:23;12.90;99.90
21238;DHT22;10777;50.828;3.264;2022-11-15T16:29:49;12.70;99.90
21238;DHT22;10777;50.828;3.264;2022-11-15T16:32:15;12.90;99.90